Time;durP1;ratioP1;P1;durP2;ratioP2;P2;SDS_P1;SDS_P2;PMS_P1;PMS_P2;Temp;Humidity;BMP_temperature;BMP_pressure;BME280_temperature;BME280_humidity;BME280_pressure;Samples;Min_cycle;Max_cycle;Signal;HPM_P1;HPM_P2
2023/10/15 00:00:24;;;;;;;8.45;2.90;;;;;;;14.67;66.51;99092.38;5093616;28;20501;-48
2023/10/15 00:02:51;;;;;;;13.07;4.32;;;;;;;14.76;66.56;99084.97;5093662;28;20028;-48
2023/10/15 00:05:21;;;;;;;11.05;3.10;;;;;;;14.77;67.18;99083.94;5075457;28;20031;-48
2023/10/15 00:07:49;;;;;;;11.45;3.75;;;;;;;14.58;67.15;99081.25;5092519;28;20060;-48
2023/10/15 00:10:19;;;;;;;13.88;3.47;;;;;;;14.36;67.72;99091.34;5092084;28;20406;-48
2023/10/15 00:12:48;;;;;;;10.80;2.60;;;;;;;14.23;68.13;99090.66;5092189;28;20054;-48
2023/10/15 00:15:18;;;;;;;10.35;2.92;;;;;;;14.09;68.59;99093.38;5093665;28;20016;-48
2023/10/15 00:17:48;;;;;;;7.47;2.78;;;;;;;13.89;68.23;99090.06;5093608;28;20103;-48
2023/10/15 00:20:17;;;;;;;3.72;1.60;;;;;;;13.55;68.55;99089.41;5093340;28;20146;-48
2023/10/15 00:22:48;;;;;;;14.07;3.40;;;;;;;13.20;69.54;99089.72;5093299;28;20032;-48
2023/10/15 00:25:14;;;;;;;14.50;4.40;;;;;;;13.15;70.62;99098.22;5093284;28;20117;-48
2023/10/15 00:27:52;;;;;;;9.05;2.53;;;;;;;13.37;71.25;99098.78;5091750;28;20050;-48
2023/10/15 00:30:19;;;;;;;4.32;1.73;;;;;;;13.49;70.20;99104.22;5091802;28;20489;-48
2023/10/15 00:32:49;;;;;;;17.08;3.15;;;;;;;13.31;69.99;99106.72;5093057;28;20436;-48
2023/10/15 00:35:21;;;;;;;11.48;2.85;;;;;;;13.39;70.73;99104.66;5092943;28;20493;-48
2023/10/15 00:37:57;;;;;;;7.88;1.60;;;;;;;13.53;70.40;99105.44;5092929;28;20081;-47
2023/10/15 00:40:24;;;;;;;10.05;3.05;;;;;;;13.50;69.63;99100.59;5092918;28;20089;-47
2023/10/15 00:42:51;;;;;;;12.85;3.63;;;;;;;13.53;69.84;99102.00;5092908;28;20024;-48
2023/10/15 00:45:18;;;;;;;8.23;1.98;;;;;;;13.56;69.22;99098.91;5091483;28;20394;-48
2023/10/15 00:50:38;;;;;;;8.38;1.92;;;;;;;13.63;68.39;99104.19;5092794;28;20020;-48
2023/10/15 00:53:21;;;;;;;8.88;1.65;;;;;;;13.33;68.81;99108.13;5091389;28;20413;-48
2023/10/15 00:55:49;;;;;;;14.55;3.72;;;;;;;13.02;68.99;99102.69;5092233;28;20032;-48
2023/10/15 00:58:21;;;;;;;14.88;3.58;;;;;;;12.86;69.83;99104.78;5092807;28;20023;-48
2023/10/15 01:00:53;;;;;;;26.42;6.80;;;;;;;13.13;70.99;99105.53;5092503;28;20059;-48
2023/10/15 01:03:48;;;;;;;23.10;7.47;;;;;;;13.61;69.77;99098.31;5092440;28;20024;-48
2023/10/15 01:06:07;;;;;;;10.13;3.72;;;;;;;13.77;68.47;99103.91;5092246;28;20414;-48
2023/10/15 01:08:38;;;;;;;16.58;4.82;;;;;;;13.72;68.68;99110.81;5092359;28;20028;-48
2023/10/15 01:11:11;;;;;;;13.77;3.45;;;;;;;13.76;68.41;99104.09;5091048;28;20576;-48
2023/10/15 01:13:38;;;;;;;12.18;3.42;;;;;;;13.78;68.41;99105.53;5092585;28;20043;-47
2023/10/15 01:16:08;;;;;;;6.80;1.50;;;;;;;13.66;67.38;99104.59;5092250;28;20095;-48
2023/10/15 01:18:36;;;;;;;6.82;2.47;;;;;;;13.23;67.45;99096.38;5090712;28;20040;-48
2023/10/15 01:21:04;;;;;;;8.90;1.75;;;;;;;12.87;68.44;99098.47;5092207;28;20121;-48
2023/10/15 01:23:44;;;;;;;9.02;2.30;;;;;;;12.54;69.17;99101.94;5092229;28;20019;-47
2023/10/15 01:26:23;;;;;;;9.02;2.35;;;;;;;12.19;69.80;99096.88;5092148;28;20489;-48
2023/10/15 01:28:49;;;;;;;16.80;3.35;;;;;;;12.01;70.99;99107.13;5092114;28;20020;-47
2023/10/15 01:31:15;;;;;;;16.95;5.15;;;;;;;11.90;71.86;99097.22;5090718;28;20513;-50
2023/10/15 01:33:49;;;;;;;18.67;4.95;;;;;;;12.05;72.68;99097.84;5092016;28;20028;-50
2023/10/15 01:36:26;;;;;;;18.20;6.95;;;;;;;12.27;72.70;99098.47;5092055;28;20032;-49
2023/10/15 01:38:58;;;;;;;14.40;3.95;;;;;;;12.44;72.22;99090.22;5092362;28;20406;-48
2023/10/15 01:41:27;;;;;;;15.35;3.38;;;;;;;12.36;71.81;99092.03;5091965;28;20032;-48
2023/10/15 01:43:56;;;;;;;10.50;2.15;;;;;;;12.30;71.99;99094.66;5091935;28;20036;-48
2023/10/15 01:49:35;;;;;;;19.05;3.72;;;;;;;12.62;72.29;99092.25;5049348;28;20025;-48
2023/10/15 01:52:10;;;;;;;15.82;2.60;;;;;;;12.87;71.45;99095.84;5049517;28;20499;-48
2023/10/15 01:54:45;;;;;;;15.10;4.15;;;;;;;13.13;70.84;99092.34;5049431;28;20041;-48
2023/10/15 01:57:14;;;;;;;18.13;6.13;;;;;;;13.29;70.32;99087.66;5049396;28;20037;-47
2023/10/15 01:59:46;;;;;;;16.90;4.30;;;;;;;13.50;69.41;99090.03;5049236;28;20029;-48
2023/10/15 02:02:22;;;;;;;10.55;3.58;;;;;;;13.58;69.04;99096.88;5049347;28;20709;-47
2023/10/15 02:04:47;;;;;;;17.90;4.90;;;;;;;13.86;69.30;99093.91;5049342;28;20106;-48
2023/10/15 02:07:17;;;;;;;23.08;5.13;;;;;;;14.20;68.64;99094.50;5049440;28;20037;-48
2023/10/15 02:09:46;;;;;;;12.75;3.55;;;;;;;14.44;67.53;99100.03;5053302;28;20110;-48
2023/10/15 02:12:19;;;;;;;13.07;2.72;;;;;;;14.61;67.20;99095.03;5053286;28;20483;-48
2023/10/15 02:14:51;;;;;;;12.18;3.22;;;;;;;14.86;66.91;99087.91;5036518;28;20554;-48
2023/10/15 02:17:23;;;;;;;9.10;2.10;;;;;;;15.12;65.58;99078.09;5053150;28;20029;-48
2023/10/15 02:19:49;;;;;;;7.72;3.35;;;;;;;15.24;65.29;99088.75;5067837;28;20044;-48
2023/10/15 02:22:15;;;;;;;15.88;4.13;;;;;;;15.38;64.81;99084.94;5094218;28;20143;-48
2023/10/15 02:24:48;;;;;;;15.32;4.22;;;;;;;15.41;64.10;99079.19;5095611;28;20024;-48
2023/10/15 02:27:25;;;;;;;23.65;7.32;;;;;;;15.39;63.62;99070.66;5095376;28;20507;-48
2023/10/15 02:29:52;;;;;;;32.28;8.88;;;;;;;15.41;63.26;99076.53;5095464;28;20444;-48
2023/10/15 02:34:50;;;;;;;21.13;5.75;;;;;;;15.27;62.88;99081.19;5095385;28;20039;-48
2023/10/15 02:37:18;;;;;;;14.63;3.47;;;;;;;15.08;63.05;99077.72;5095218;28;20020;-48
2023/10/15 02:39:50;;;;;;;19.63;4.40;;;;;;;14.79;63.05;99079.25;5095253;28;20035;-48
2023/10/15 02:42:17;;;;;;;8.30;2.05;;;;;;;14.46;63.50;99085.59;5094236;28;20051;-48
2023/10/15 02:44:44;;;;;;;24.65;6.00;;;;;;;14.17;64.46;99084.41;5095154;28;20035;-48
2023/10/15 02:50:03;;;;;;;7.93;2.40;;;;;;;13.92;65.07;99087.81;5095385;28;20035;-48
2023/10/15 02:52:54;;;;;;;14.07;3.63;;;;;;;13.82;65.37;99091.91;5095121;28;20507;-48
2023/10/15 02:55:26;;;;;;;22.40;5.30;;;;;;;13.68;65.58;99080.63;5094610;28;20124;-48
2023/10/15 02:57:52;;;;;;;8.30;2.03;;;;;;;13.58;65.99;99083.69;5095049;28;20543;-48
2023/10/15 03:00:33;;;;;;;10.70;3.00;;;;;;;13.42;66.17;99086.81;5094865;28;20036;-48
2023/10/15 03:03:09;;;;;;;10.60;1.90;;;;;;;13.31;66.38;99083.00;5095012;28;20028;-48
2023/10/15 03:05:42;;;;;;;30.25;9.40;;;;;;;13.30;67.03;99087.47;5094790;28;20032;-48
2023/10/15 03:08:17;;;;;;;13.93;3.63;;;;;;;13.46;66.87;99080.94;5094687;28;20024;-48
2023/10/15 03:10:56;;;;;;;7.03;2.42;;;;;;;13.41;66.51;99080.75;5094686;28;20032;-48
2023/10/15 03:13:21;;;;;;;15.77;5.07;;;;;;;13.21;66.65;99080.78;5093380;28;20051;-48
2023/10/15 03:15:50;;;;;;;14.88;4.57;;;;;;;13.05;67.40;99076.75;5094607;28;20071;-48
2023/10/15 03:18:23;;;;;;;10.07;3.30;;;;;;;13.02;67.19;99087.72;5093979;28;20056;-48
2023/10/15 03:21:14;;;;;;;10.43;2.00;;;;;;;12.82;67.75;99093.03;5094477;28;20016;-48
2023/10/15 03:23:39;;;;;;;6.93;2.45;;;;;;;12.68;68.47;99094.84;5094329;28;20036;-48
2023/10/15 03:26:05;;;;;;;9.85;1.95;;;;;;;12.62;69.10;99095.69;5094611;28;20028;-48
2023/10/15 03:28:34;;;;;;;11.52;3.50;;;;;;;12.54;69.44;99088.78;5094318;28;20119;-48
2023/10/15 03:31:00;;;;;;;7.93;1.80;;;;;;;12.38;69.61;99081.28;5092968;28;20024;-47
2023/10/15 03:33:30;;;;;;;55.42;49.00;;;;;;;12.22;70.17;99079.88;5094264;28;20069;-48
2023/10/15 03:35:57;;;;;;;12.73;4.57;;;;;;;12.11;70.85;99083.06;5094198;28;20024;-48
2023/10/15 03:38:33;;;;;;;14.50;3.75;;;;;;;12.03;71.26;99083.28;5094143;28;20028;-48
2023/10/15 03:41:39;;;;;;;9.30;3.25;;;;;;;11.98;71.66;99082.03;5094188;28;20076;-48
2023/10/15 03:43:51;;;;;;;8.32;2.13;;;;;;;11.95;71.77;99079.84;5092760;28;20187;-48
2023/10/15 03:46:19;;;;;;;13.93;3.75;;;;;;;11.93;71.97;99083.66;5093924;28;20091;-48
2023/10/15 03:48:50;;;;;;;10.90;3.75;;;;;;;11.91;72.20;99083.03;5093861;28;20115;-48
2023/10/15 03:51:23;;;;;;;14.00;3.50;;;;;;;11.93;72.33;99081.03;5092778;28;20599;-50
2023/10/15 03:53:51;;;;;;;8.57;2.03;;;;;;;11.87;72.28;99081.78;5093855;28;20032;-50
2023/10/15 03:56:18;;;;;;;17.75;5.43;;;;;;;11.85;72.59;99079.38;5093787;28;20629;-50
2023/10/15 03:58:45;;;;;;;14.52;4.78;;;;;;;12.03;72.64;99081.44;5092448;28;20039;-50
2023/10/15 04:03:43;;;;;;;19.38;5.20;;;;;;;12.19;71.91;99078.47;5093668;28;20024;-50
2023/10/15 04:06:10;;;;;;;9.40;2.88;;;;;;;12.29;72.27;99077.22;5092259;28;20386;-50
2023/10/15 04:08:39;;;;;;;19.05;3.80;;;;;;;12.26;71.60;99081.09;5093448;28;20039;-49
2023/10/15 04:11:06;;;;;;;17.48;4.45;;;;;;;12.44;72.08;99071.78;5093479;28;20027;-47
2023/10/15 04:13:33;;;;;;;11.77;2.90;;;;;;;12.58;71.31;99079.47;5093511;28;20024;-48
2023/10/15 04:15:59;;;;;;;8.82;3.13;;;;;;;12.64;70.93;99079.69;5092085;28;20032;-48
2023/10/15 04:18:25;;;;;;;12.52;3.22;;;;;;;12.69;70.91;99071.97;5093332;28;20044;-48
2023/10/15 04:20:56;;;;;;;11.70;5.05;;;;;;;12.78;70.44;99087.34;5092041;28;20028;-48
2023/10/15 04:23:30;;;;;;;19.17;5.40;;;;;;;12.93;70.20;99081.84;5093321;28;20396;-48
2023/10/15 04:26:04;;;;;;;14.97;3.53;;;;;;;13.08;69.51;99083.44;5093336;28;20036;-48
2023/10/15 04:28:30;;;;;;;17.23;4.88;;;;;;;13.18;69.06;99082.00;5093149;28;20028;-48
2023/10/15 04:30:56;;;;;;;10.07;3.38;;;;;;;13.31;68.78;99078.53;5092437;28;20020;-48
2023/10/15 04:33:26;;;;;;;12.30;3.63;;;;;;;13.43;68.35;99086.59;5093089;28;20470;-48
2023/10/15 04:35:52;;;;;;;21.15;5.35;;;;;;;13.52;68.01;99092.44;5093028;28;20035;-48
2023/10/15 04:38:28;;;;;;;14.85;2.75;;;;;;;13.59;67.44;99091.41;5091632;28;20032;-48
2023/10/15 04:43:25;;;;;;;11.25;2.92;;;;;;;13.64;66.74;99090.78;5092907;28;20036;-48
2023/10/15 04:45:56;;;;;;;12.75;3.40;;;;;;;13.65;66.41;99087.13;5091552;28;20432;-48
2023/10/15 04:48:30;;;;;;;13.18;3.10;;;;;;;13.62;66.29;99087.53;5091512;28;20032;-48
2023/10/15 04:51:18;;;;;;;8.50;2.10;;;;;;;13.64;66.35;99088.13;5092808;28;20557;-48
2023/10/15 04:53:50;;;;;;;7.78;2.58;;;;;;;13.67;66.40;99090.34;5092434;28;20040;-48
2023/10/15 04:56:16;;;;;;;8.98;2.08;;;;;;;13.71;66.25;99094.19;5092684;28;20420;-48
2023/10/15 04:58:42;;;;;;;10.77;2.50;;;;;;;13.69;66.20;99093.59;5091562;28;20027;-48
2023/10/15 05:01:08;;;;;;;7.47;2.05;;;;;;;13.62;66.27;99089.38;5091194;28;20444;-48
2023/10/15 05:03:36;;;;;;;8.98;2.10;;;;;;;13.49;66.11;99096.31;5092532;28;20016;-48
2023/10/15 05:06:10;;;;;;;9.23;1.70;;;;;;;13.24;66.60;99090.91;5092374;28;20019;-48
2023/10/15 05:08:36;;;;;;;9.68;2.55;;;;;;;13.22;67.35;99087.69;5092452;28;20028;-48
2023/10/15 05:11:04;;;;;;;6.13;2.30;;;;;;;13.41;67.58;99085.22;5091064;28;20024;-48
2023/10/15 05:13:31;;;;;;;7.90;2.10;;;;;;;13.62;67.41;99090.16;5092400;28;20012;-48
2023/10/15 05:15:57;;;;;;;9.30;2.20;;;;;;;13.76;66.59;99089.09;5092259;28;20095;-48
2023/10/15 05:18:22;;;;;;;6.53;2.63;;;;;;;13.87;66.36;99097.38;5092245;28;20127;-48
2023/10/15 05:20:50;;;;;;;11.20;2.47;;;;;;;14.01;65.98;99091.00;5090951;28;20505;-48
2023/10/15 05:23:17;;;;;;;7.32;2.38;;;;;;;14.12;65.47;99095.56;5092502;28;20031;-48
2023/10/15 05:25:43;;;;;;;12.55;2.13;;;;;;;14.14;65.09;99085.63;5090879;28;20051;-48
2023/10/15 05:28:14;;;;;;;7.25;2.88;;;;;;;14.18;65.18;99081.56;5090765;28;20128;-48
2023/10/15 05:30:40;;;;;;;9.55;2.65;;;;;;;14.31;65.21;99087.75;5092249;28;20023;-48
2023/10/15 05:33:07;;;;;;;12.93;5.82;;;;;;;14.38;64.87;99081.38;5092110;28;20081;-48
2023/10/15 05:35:34;;;;;;;13.57;3.30;;;;;;;14.34;64.53;99084.66;5090713;28;20035;-48
2023/10/15 05:38:00;;;;;;;8.13;2.15;;;;;;;14.27;64.46;99084.72;5092297;28;20028;-48
2023/10/15 05:40:26;;;;;;;9.93;2.72;;;;;;;14.22;64.62;99081.91;5090662;28;20068;-49
2023/10/15 05:42:53;;;;;;;7.88;2.75;;;;;;;14.22;64.27;99083.75;5090638;28;20501;-47
2023/10/15 05:45:19;;;;;;;26.13;5.72;;;;;;;14.31;64.75;99085.13;5090571;28;20020;-48
2023/10/15 05:47:44;;;;;;;8.63;2.40;;;;;;;14.30;64.00;99080.84;5091894;28;20024;-48
2023/10/15 05:50:16;;;;;;;7.78;2.05;;;;;;;14.24;64.08;99087.78;5090505;28;20091;-48
2023/10/15 05:52:42;;;;;;;7.85;2.28;;;;;;;14.01;64.16;99085.72;5091935;28;20134;-48
2023/10/15 05:55:08;;;;;;;16.77;3.50;;;;;;;13.79;64.40;99085.22;5090447;28;20110;-48
2023/10/15 05:57:34;;;;;;;13.05;3.83;;;;;;;13.50;64.75;99079.50;5091844;28;20108;-48
2023/10/15 06:00:17;;;;;;;14.20;2.30;;;;;;;13.36;65.22;99083.19;5090520;28;20466;-48
2023/10/15 06:02:47;;;;;;;9.75;2.80;;;;;;;13.31;65.84;99078.53;5091820;28;20067;-48
2023/10/15 06:05:16;;;;;;;14.82;2.70;;;;;;;13.37;66.12;99079.53;5091763;28;20028;-48
2023/10/15 06:07:43;;;;;;;8.75;2.35;;;;;;;13.39;66.09;99078.31;5091674;28;20032;-48
2023/10/15 06:10:11;;;;;;;15.05;2.88;;;;;;;13.47;66.17;99073.81;5091695;28;20023;-48
2023/10/15 06:12:41;;;;;;;31.85;4.35;;;;;;;13.50;65.93;99081.31;5091677;28;20023;-48
2023/10/15 06:15:08;;;;;;;12.93;2.22;;;;;;;13.63;65.97;99078.63;5091607;28;20409;-48
2023/10/15 06:17:34;;;;;;;8.45;2.38;;;;;;;13.83;65.52;99083.78;5091662;28;20028;-48
2023/10/15 06:20:12;;;;;;;40.50;4.65;;;;;;;14.01;65.03;99080.44;5091379;28;20047;-48
2023/10/15 06:22:41;;;;;;;8.65;2.22;;;;;;;14.06;64.44;99083.22;5091658;28;20095;-48
2023/10/15 06:25:16;;;;;;;9.40;3.00;;;;;;;13.98;64.58;99083.50;5073340;28;20524;-47
2023/10/15 06:27:42;;;;;;;9.27;2.85;;;;;;;13.94;64.64;99083.13;5091564;28;20024;-48
2023/10/15 06:30:14;;;;;;;41.25;5.85;;;;;;;14.02;64.84;99086.53;5091448;28;20036;-48
2023/10/15 06:32:44;;;;;;;31.88;5.95;;;;;;;14.19;64.50;99090.28;5090318;28;20383;-48
2023/10/15 06:35:14;;;;;;;8.25;2.22;;;;;;;14.34;64.22;99080.19;5091712;28;20419;-48
2023/10/15 06:37:41;;;;;;;17.50;3.47;;;;;;;14.46;63.71;99090.88;5091504;28;20027;-48
2023/10/15 06:40:10;;;;;;;10.43;2.70;;;;;;;14.48;63.21;99090.66;5090108;28;20043;-48
2023/10/15 06:42:37;;;;;;;6.53;1.83;;;;;;;14.52;63.19;99092.66;5091626;28;20023;-48
2023/10/15 06:45:06;;;;;;;19.02;3.30;;;;;;;14.88;63.20;99095.63;5090048;28;20468;-48
2023/10/15 06:47:34;;;;;;;24.13;3.55;;;;;;;15.33;62.27;99092.72;5091312;28;20017;-48
2023/10/15 06:49:59;;;;;;;8.45;2.17;;;;;;;15.74;61.03;99088.59;5091324;28;20028;-48
2023/10/15 06:52:25;;;;;;;15.25;3.13;;;;;;;16.12;59.67;99092.75;5090017;28;20539;-48
2023/10/15 06:54:51;;;;;;;9.55;1.95;;;;;;;16.50;58.39;99084.41;5092692;28;20035;-48
2023/10/15 06:57:17;;;;;;;18.55;3.65;;;;;;;16.82;57.25;99080.63;5093641;28;20103;-48
2023/10/15 06:59:43;;;;;;;10.10;3.03;;;;;;;16.96;56.71;99089.97;5094882;28;20106;-48
2023/10/15 07:02:13;;;;;;;12.95;2.83;;;;;;;17.30;56.06;99096.25;5094845;28;20051;-48
2023/10/15 07:04:39;;;;;;;6.30;2.05;;;;;;;17.67;54.70;99095.94;5094853;28;20036;-48
2023/10/15 07:07:05;;;;;;;15.60;3.03;;;;;;;17.80;54.14;99108.13;5094648;28;20073;-48
2023/10/15 07:09:32;;;;;;;6.43;2.10;;;;;;;17.98;53.85;99101.03;5095015;28;20024;-48
2023/10/15 07:11:59;;;;;;;13.48;3.20;;;;;;;18.29;53.22;99102.34;5094603;28;20052;-48
2023/10/15 07:14:25;;;;;;;7.53;2.90;;;;;;;18.47;52.60;99106.63;5094920;28;20020;-48
2023/10/15 07:16:50;;;;;;;14.40;3.13;;;;;;;18.50;52.44;99106.16;5094599;28;20512;-48
2023/10/15 07:19:16;;;;;;;5.78;2.10;;;;;;;18.46;52.32;99108.50;5093049;28;20044;-48
2023/10/15 07:21:42;;;;;;;7.90;2.67;;;;;;;18.33;51.70;99120.25;5094498;28;20031;-48
2023/10/15 07:24:11;;;;;;;12.88;2.65;;;;;;;18.07;52.51;99119.00;5094392;28;20020;-48
2023/10/15 07:26:40;;;;;;;12.82;2.80;;;;;;;17.76;53.01;99118.41;5094470;28;20020;-48
2023/10/15 07:29:07;;;;;;;6.07;2.58;;;;;;;17.54;53.53;99122.75;5094302;28;20072;-48
2023/10/15 07:31:33;;;;;;;20.08;3.88;;;;;;;17.37;54.89;99120.81;5094352;28;20107;-48
2023/10/15 07:34:00;;;;;;;15.63;2.88;;;;;;;17.36;55.56;99121.88;5094228;28;20153;-48
2023/10/15 07:36:26;;;;;;;7.07;1.77;;;;;;;17.50;55.56;99129.56;5094186;28;20547;-48
2023/10/15 07:38:54;;;;;;;6.70;2.40;;;;;;;17.59;54.95;99120.19;5094214;28;20028;-48
2023/10/15 07:41:20;;;;;;;7.43;2.10;;;;;;;17.67;54.67;99127.78;5094398;28;20041;-48
2023/10/15 07:43:46;;;;;;;8.25;2.70;;;;;;;17.74;54.79;99123.13;5092899;28;20482;-48
2023/10/15 07:46:11;;;;;;;11.63;2.88;;;;;;;17.95;53.72;99124.38;5094078;28;20030;-48
2023/10/15 07:48:37;;;;;;;17.02;14.55;;;;;;;18.29;53.63;99129.75;5093948;28;20028;-48
2023/10/15 07:51:03;;;;;;;144.07;131.75;;;;;;;18.99;52.71;99132.97;5093858;28;20532;-48
2023/10/15 07:53:29;;;;;;;12.15;4.57;;;;;;;19.77;50.79;99126.81;5093916;28;20027;-48
2023/10/15 07:55:55;;;;;;;13.50;4.45;;;;;;;20.51;49.46;99127.00;5093830;28;20024;-48
2023/10/15 07:58:21;;;;;;;29.45;8.82;;;;;;;21.22;47.85;99122.41;5093820;28;20028;-47
2023/10/15 08:00:50;;;;;;;7.50;2.47;;;;;;;21.72;45.43;99129.84;5093956;28;20524;-45
2023/10/15 08:03:16;;;;;;;9.63;2.60;;;;;;;22.00;45.17;99129.66;5093917;28;20036;-46
2023/10/15 08:05:46;;;;;;;8.30;2.08;;;;;;;22.49;43.71;99132.66;5092634;28;20058;-46
2023/10/15 08:08:12;;;;;;;8.60;2.08;;;;;;;22.78;42.69;99142.00;5093468;28;20024;-45
2023/10/15 08:10:37;;;;;;;5.72;1.80;;;;;;;23.68;41.40;99133.22;5093585;28;20038;-46
2023/10/15 08:13:04;;;;;;;4.32;1.98;;;;;;;24.62;39.01;99129.69;5093516;28;20042;-46
2023/10/15 08:15:33;;;;;;;11.52;2.70;;;;;;;24.70;38.26;99129.09;5092222;28;20130;-46
2023/10/15 08:18:01;;;;;;;6.80;1.98;;;;;;;25.01;38.18;99128.78;5092162;28;20036;-46
2023/10/15 08:20:28;;;;;;;11.60;2.00;;;;;;;25.76;36.29;99125.50;5093414;28;20434;-45
2023/10/15 08:22:54;;;;;;;6.95;1.88;;;;;;;26.53;34.81;99134.34;5093241;28;20039;-46
2023/10/15 08:25:23;;;;;;;8.40;1.70;;;;;;;27.20;33.87;99132.06;5093318;28;20115;-46
2023/10/15 08:27:49;;;;;;;6.68;2.00;;;;;;;26.69;33.51;99128.41;5091832;28;20055;-46
2023/10/15 08:30:17;;;;;;;7.47;2.00;;;;;;;25.03;35.92;99132.81;5091846;28;20028;-46
2023/10/15 08:32:45;;;;;;;5.60;1.90;;;;;;;24.40;36.75;99130.13;5091824;28;20111;-46
2023/10/15 08:35:13;;;;;;;7.43;2.10;;;;;;;23.73;37.80;99136.69;5091740;28;20024;-46
2023/10/15 08:37:43;;;;;;;4.40;2.15;;;;;;;24.05;37.72;99138.16;5093082;28;20024;-46
2023/10/15 08:40:15;;;;;;;8.15;1.73;;;;;;;24.42;36.86;99128.75;5092978;28;20528;-46
2023/10/15 08:42:59;;;;;;;6.78;1.90;;;;;;;25.12;36.94;99124.91;5093235;28;20028;-46
2023/10/15 08:45:26;;;;;;;5.88;1.90;;;;;;;25.77;35.35;99113.66;5092852;28;20153;-46
2023/10/15 08:47:53;;;;;;;5.45;1.60;;;;;;;26.18;34.19;99114.97;5092862;28;20027;-46
2023/10/15 08:50:20;;;;;;;9.20;2.22;;;;;;;26.56;34.07;99113.03;5092758;28;20549;-46
2023/10/15 08:52:48;;;;;;;6.00;1.90;;;;;;;27.25;32.45;99105.06;5091440;28;20022;-46
2023/10/15 08:55:15;;;;;;;4.50;1.90;;;;;;;27.41;32.00;99112.84;5091354;28;20119;-46
2023/10/15 08:57:41;;;;;;;5.55;2.05;;;;;;;27.78;31.67;99102.88;5092941;28;20105;-46
2023/10/15 09:00:25;;;;;;;10.05;2.17;;;;;;;28.30;31.13;99108.69;5092505;28;20532;-46
2023/10/15 09:03:00;;;;;;;4.93;1.98;;;;;;;28.54;30.65;99102.22;5092632;28;20047;-46
2023/10/15 09:05:30;;;;;;;12.02;1.92;;;;;;;28.80;29.90;99089.63;5092562;28;20106;-46
2023/10/15 09:07:59;;;;;;;5.28;1.60;;;;;;;28.74;29.54;99100.88;5092424;28;20499;-46
2023/10/15 09:10:24;;;;;;;8.55;2.00;;;;;;;28.80;29.61;99100.44;5092372;28;20036;-45
2023/10/15 09:12:50;;;;;;;6.55;1.63;;;;;;;29.15;29.00;99100.56;5074275;28;20020;-46
2023/10/15 09:15:18;;;;;;;7.68;2.30;;;;;;;28.78;28.74;99097.25;5091062;28;20051;-46
2023/10/15 09:17:55;;;;;;;8.20;1.73;;;;;;;27.67;29.69;99108.50;5092082;28;20028;-45
2023/10/15 09:20:32;;;;;;;9.13;1.80;;;;;;;25.98;31.58;99105.31;5074700;28;20040;-45
2023/10/15 09:23:00;;;;;;;3.50;1.38;;;;;;;24.04;34.25;99112.41;5092238;28;20039;-45
2023/10/15 09:25:27;;;;;;;6.25;2.20;;;;;;;22.60;36.08;99113.97;5090859;28;20032;-45
2023/10/15 09:27:54;;;;;;;4.30;1.63;;;;;;;21.59;37.97;99117.00;5090855;28;20536;-45
2023/10/15 09:30:23;;;;;;;5.82;1.80;;;;;;;20.95;38.91;99118.78;5092418;28;20055;-45
2023/10/15 09:32:50;;;;;;;7.97;2.13;;;;;;;20.19;40.71;99120.84;5092378;28;20024;-45
2023/10/15 09:35:16;;;;;;;4.57;1.40;;;;;;;20.60;40.99;99108.69;5092071;28;20095;-45
2023/10/15 09:37:44;;;;;;;7.22;2.08;;;;;;;21.54;39.56;99106.28;5092041;28;20027;-45
2023/10/15 09:40:18;;;;;;;6.18;2.05;;;;;;;23.04;37.21;99099.97;5091994;28;20025;-45
2023/10/15 09:42:46;;;;;;;9.10;2.20;;;;;;;24.46;35.12;99102.97;5092009;28;20024;-48
2023/10/15 09:45:18;;;;;;;8.57;1.58;;;;;;;25.33;32.43;99097.84;5092190;28;20405;-45
2023/10/15 09:47:48;;;;;;;4.53;1.67;;;;;;;25.95;31.53;99097.84;5091878;28;20540;-45
2023/10/15 09:50:24;;;;;;;5.68;1.60;;;;;;;26.63;30.74;99093.81;5090609;28;20437;-46
2023/10/15 09:53:01;;;;;;;5.55;1.45;;;;;;;27.10;28.26;99092.66;5091951;28;20015;-45
2023/10/15 09:55:31;;;;;;;7.38;1.90;;;;;;;26.70;28.66;99095.03;5090542;28;20036;-45
2023/10/15 09:58:04;;;;;;;6.72;1.63;;;;;;;26.21;28.98;99084.78;5092096;28;20112;-46
2023/10/15 10:00:46;;;;;;;12.38;2.15;;;;;;;26.09;30.42;99088.72;5091752;28;20397;-46
2023/10/15 10:03:47;;;;;;;5.68;1.95;;;;;;;26.26;29.85;99084.72;5091790;28;20028;-45
2023/10/15 10:06:55;;;;;;;7.20;1.50;;;;;;;25.78;29.22;99082.19;5068172;28;20142;-45
2023/10/15 10:09:57;;;;;;;6.80;1.25;;;;;;;25.55;29.84;99084.63;5091766;28;20108;-45
2023/10/15 10:12:35;;;;;;;8.52;1.75;;;;;;;25.21;30.09;99091.00;5090346;28;20036;-44
2023/10/15 10:15:08;;;;;;;5.18;1.70;;;;;;;25.21;30.93;99082.09;5091724;28;20031;-46
2023/10/15 10:17:34;;;;;;;6.82;1.40;;;;;;;25.98;29.81;99086.47;5091594;28;20036;-46
2023/10/15 10:20:11;;;;;;;5.60;1.55;;;;;;;26.48;28.84;99075.97;5091358;28;20094;-45
2023/10/15 10:22:38;;;;;;;7.68;1.48;;;;;;;26.33;29.11;99073.56;5091931;28;20035;-46
2023/10/15 10:25:06;;;;;;;3.97;1.33;;;;;;;26.01;29.75;99084.00;5090291;28;20744;-46
2023/10/15 10:27:42;;;;;;;6.68;1.58;;;;;;;25.84;29.16;99054.16;5091507;28;20066;-45
2023/10/15 10:30:27;;;;;;;4.00;1.27;;;;;;;24.66;29.72;99087.78;5093569;28;20547;-45
2023/10/15 10:32:55;;;;;;;;;;;;;;;23.67;31.20;99070.00;5094585;28;20239;-45
2023/10/15 10:35:23;;;;;;;8.73;1.65;;;;;;;24.49;29.73;99075.56;5095412;28;19908;-45
2023/10/15 10:38:06;;;;;;;5.05;1.48;;;;;;;26.13;28.78;99063.94;5095273;28;20547;-46
2023/10/15 10:40:59;;;;;;;4.22;1.38;;;;;;;27.50;27.75;99060.56;5095353;28;20024;-46
2023/10/15 10:43:27;;;;;;;3.95;1.33;;;;;;;28.07;25.86;99049.34;5095249;28;20039;-46
2023/10/15 10:45:56;;;;;;;12.23;1.58;;;;;;;26.41;27.01;99060.22;5095398;28;20107;-46
2023/10/15 10:48:33;;;;;;;15.00;2.22;;;;;;;24.11;30.51;99061.94;5076757;28;20032;-46
2023/10/15 10:51:08;;;;;;;5.13;1.30;;;;;;;23.36;32.10;99058.63;5095129;28;20027;-46
2023/10/15 10:53:37;;;;;;;4.97;1.48;;;;;;;24.38;31.04;99049.91;5095093;28;20028;-46
2023/10/15 10:56:04;;;;;;;6.63;2.05;;;;;;;25.01;29.81;99043.66;5095218;28;20073;-46
2023/10/15 10:58:30;;;;;;;15.63;4.22;;;;;;;25.42;29.55;99050.44;5095011;28;20490;-46
2023/10/15 11:00:59;;;;;;;5.70;1.70;;;;;;;25.98;28.27;99044.28;5093631;28;20129;-47
2023/10/15 11:03:25;;;;;;;9.68;3.30;;;;;;;26.41;27.45;99040.59;5093744;28;20498;-46
2023/10/15 11:05:54;;;;;;;3.13;1.10;;;;;;;26.55;26.75;99046.81;5094837;28;20561;-46
2023/10/15 11:08:22;;;;;;;3.25;0.95;;;;;;;26.42;27.26;99039.50;5094729;28;20069;-46
2023/10/15 11:10:48;;;;;;;4.97;1.00;;;;;;;26.51;27.00;99029.66;5094672;28;20016;-46
2023/10/15 11:13:15;;;;;;;5.88;1.55;;;;;;;26.84;26.81;99029.59;5093363;28;20465;-46
2023/10/15 11:15:49;;;;;;;3.85;1.20;;;;;;;27.04;25.20;99037.25;5093473;28;20052;-46
2023/10/15 11:18:23;;;;;;;5.83;1.23;;;;;;;26.96;24.67;99024.50;5094654;28;20052;-46
2023/10/15 11:20:50;;;;;;;3.33;1.10;;;;;;;27.09;26.02;99033.69;5093242;28;20016;-46
2023/10/15 11:23:16;;;;;;;6.82;1.17;;;;;;;27.43;26.21;99024.38;5094559;28;20032;-47
2023/10/15 11:25:42;;;;;;;4.28;1.60;;;;;;;27.38;25.80;99019.88;5094410;28;20047;-46
2023/10/15 11:28:11;;;;;;;5.95;1.13;;;;;;;26.99;25.21;99015.03;5094371;28;20082;-46
2023/10/15 11:30:41;;;;;;;7.00;2.13;;;;;;;25.75;27.44;99020.94;5094284;28;20070;-46
2023/10/15 11:33:09;;;;;;;10.00;1.65;;;;;;;24.80;27.74;99021.59;5094326;28;20067;-46
2023/10/15 11:35:37;;;;;;;5.03;1.42;;;;;;;23.34;29.96;99024.06;5094209;28;20043;-46
2023/10/15 11:38:07;;;;;;;8.95;1.70;;;;;;;;;;5094187;28;20026;-46
2023/10/15 11:40:37;;;;;;;10.18;1.48;;;;;;;24.12;30.37;99015.25;5094263;28;20097;-46
2023/10/15 11:43:04;;;;;;;4.07;1.10;;;;;;;24.59;28.96;99010.31;5094163;28;20039;-46
2023/10/15 11:45:30;;;;;;;6.97;1.60;;;;;;;23.75;29.67;98999.72;5094357;28;20043;-46
2023/10/15 11:47:58;;;;;;;5.47;1.23;;;;;;;22.91;30.65;99002.28;5093978;28;20470;-46
2023/10/15 11:50:24;;;;;;;7.47;1.52;;;;;;;23.08;31.01;99010.00;5092664;28;20024;-46
2023/10/15 11:52:52;;;;;;;12.05;1.33;;;;;;;23.65;30.20;98997.91;5092645;28;20024;-46
2023/10/15 11:55:31;;;;;;;9.68;2.25;;;;;;;24.21;29.30;98995.91;5093799;28;20023;-46
2023/10/15 11:58:07;;;;;;;8.60;2.50;;;;;;;25.00;28.15;98998.28;5093923;28;20081;-46